Time;durP1;ratioP1;P1;durP2;ratioP2;P2;SDS_P1;SDS_P2;PMS_P1;PMS_P2;Temp;Humidity;BMP_temperature;BMP_pressure;BME280_temperature;BME280_humidity;BME280_pressure;Samples;Min_cycle;Max_cycle;Signal;HPM_P1;HPM_P2
2021/12/06 00:00:56;;;;;;;20.75;13.68;;;;;;;4.37;100.00;101438.16;5070636;28;20053;-33
2021/12/06 00:03:28;;;;;;;20.10;14.60;;;;;;;4.38;100.00;101439.00;5068303;28;20128;-37
2021/12/06 00:05:57;;;;;;;17.95;12.73;;;;;;;4.33;100.00;101436.13;5070879;28;20049;-38
2021/12/06 00:08:25;;;;;;;15.93;11.25;;;;;;;4.32;100.00;101435.28;5069859;28;20082;-37
2021/12/06 00:10:53;;;;;;;15.05;11.07;;;;;;;4.30;100.00;101436.59;5071293;28;20504;-37
2021/12/06 00:13:23;;;;;;;18.35;12.75;;;;;;;4.30;100.00;101439.38;5070538;28;20051;-33
2021/12/06 00:15:52;;;;;;;15.18;11.02;;;;;;;4.28;100.00;101449.81;5070235;28;20060;-33
2021/12/06 00:18:20;;;;;;;16.30;12.32;;;;;;;4.27;100.00;101445.38;5070514;28;20033;-30
2021/12/06 00:20:48;;;;;;;15.43;11.18;;;;;;;4.25;100.00;101447.53;5070427;28;20040;-31
2021/12/06 00:23:16;;;;;;;15.02;11.27;;;;;;;4.24;100.00;101445.84;5070147;28;20470;-33
2021/12/06 00:25:43;;;;;;;13.40;10.07;;;;;;;4.22;100.00;101456.31;5070757;28;20044;-35
2021/12/06 00:28:11;;;;;;;15.05;11.27;;;;;;;4.21;100.00;101455.47;5069944;28;20378;-34
2021/12/06 00:30:39;;;;;;;14.52;10.73;;;;;;;4.20;100.00;101461.25;5069162;28;20059;-32
2021/12/06 00:33:08;;;;;;;11.68;8.85;;;;;;;4.18;100.00;101455.97;5069287;28;20045;-32
2021/12/06 00:35:36;;;;;;;13.05;10.23;;;;;;;4.15;100.00;101457.31;5070251;28;20040;-34
2021/12/06 00:38:04;;;;;;;12.43;9.25;;;;;;;4.15;100.00;101461.97;5069267;28;20051;-31
2021/12/06 00:40:34;;;;;;;11.88;9.15;;;;;;;4.11;100.00;101456.09;5070312;28;20048;-33
2021/12/06 00:43:03;;;;;;;10.65;7.88;;;;;;;4.08;100.00;101456.56;5069804;28;20127;-36
2021/12/06 00:45:31;;;;;;;10.27;7.97;;;;;;;4.05;100.00;101458.97;5068996;28;20139;-36
2021/12/06 00:47:59;;;;;;;9.07;7.30;;;;;;;4.03;100.00;101466.66;5070148;28;20126;-33
2021/12/06 00:50:33;;;;;;;8.98;7.00;;;;;;;4.01;100.00;101460.53;5068394;28;20079;-36
2021/12/06 00:53:02;;;;;;;8.02;6.38;;;;;;;3.98;100.00;101459.13;5068985;28;20045;-37
2021/12/06 00:55:29;;;;;;;8.07;6.97;;;;;;;3.95;100.00;101461.53;5072779;28;20402;-34
2021/12/06 00:57:57;;;;;;;10.43;8.02;;;;;;;3.89;100.00;101452.28;5073516;28;20071;-34
2021/12/06 01:00:34;;;;;;;9.93;7.82;;;;;;;3.84;100.00;101465.09;5073634;28;20045;-31
2021/12/06 01:03:04;;;;;;;10.70;7.28;;;;;;;3.80;100.00;101464.75;5071846;28;20048;-29
2021/12/06 01:05:34;;;;;;;13.00;8.82;;;;;;;3.77;100.00;101466.09;5073809;28;20436;-35
2021/12/06 01:08:03;;;;;;;14.98;9.52;;;;;;;3.74;100.00;101474.84;5073944;28;20049;-33
2021/12/06 01:10:33;;;;;;;14.40;9.80;;;;;;;3.73;100.00;101475.06;5071673;28;20101;-31
2021/12/06 01:13:02;;;;;;;13.18;8.98;;;;;;;3.68;100.00;101478.53;5073727;28;20047;-32
2021/12/06 01:15:31;;;;;;;13.65;9.52;;;;;;;3.64;100.00;101480.09;5073482;28;20037;-36
2021/12/06 01:18:01;;;;;;;13.98;9.30;;;;;;;3.61;100.00;101479.72;5073603;28;20040;-31
2021/12/06 01:20:35;;;;;;;12.48;8.65;;;;;;;3.58;100.00;101482.97;5071949;28;20114;-31
2021/12/06 01:23:11;;;;;;;11.52;7.22;;;;;;;3.57;100.00;101481.31;5072300;28;20135;-35
2021/12/06 01:25:49;;;;;;;11.38;7.50;;;;;;;3.55;100.00;101476.03;5071256;28;20529;-36
2021/12/06 01:31:31;;;;;;;12.98;8.32;;;;;;;3.48;100.00;101480.78;5034814;28;20048;-37
2021/12/06 01:34:10;;;;;;;12.40;7.82;;;;;;;3.48;100.00;101478.03;5072320;28;20098;-36
2021/12/06 01:39:27;;;;;;;15.27;8.73;;;;;;;3.47;100.00;101473.59;5072798;28;20053;-38
2021/12/06 01:41:58;;;;;;;11.45;7.78;;;;;;;3.46;100.00;101472.75;5073111;28;20068;-30
2021/12/06 01:44:28;;;;;;;12.10;7.78;;;;;;;3.46;100.00;101474.66;5072043;28;20049;-32
2021/12/06 01:47:10;;;;;;;;;;;;;;;3.40;100.00;101473.69;5071723;28;20047;-33
2021/12/06 01:49:40;;;;;;;10.85;6.60;;;;;;;3.38;100.00;101475.88;5073060;28;19920;-36
2021/12/06 01:52:12;;;;;;;11.52;7.50;;;;;;;3.39;100.00;101477.56;5072776;28;20135;-34
2021/12/06 01:54:41;;;;;;;10.57;7.30;;;;;;;3.38;100.00;101472.28;5072727;28;20561;-37
2021/12/06 01:57:10;;;;;;;12.88;7.88;;;;;;;3.38;100.00;101467.59;5071777;28;20509;-40
2021/12/06 01:59:38;;;;;;;10.85;6.65;;;;;;;3.38;100.00;101472.28;5071196;28;20063;-35
2021/12/06 02:02:08;;;;;;;11.45;7.45;;;;;;;3.36;100.00;101468.91;5070346;28;20048;-32
2021/12/06 02:04:37;;;;;;;9.95;6.93;;;;;;;3.35;100.00;101464.47;5072805;28;20132;-31
2021/12/06 02:07:07;;;;;;;11.55;7.88;;;;;;;3.33;100.00;101464.69;5071619;28;20055;-30
2021/12/06 02:09:37;;;;;;;10.35;7.57;;;;;;;3.30;100.00;101462.41;5073111;28;20090;-34
2021/12/06 02:12:12;;;;;;;12.10;7.30;;;;;;;3.27;100.00;101460.13;5071251;28;20056;-37
2021/12/06 02:14:49;;;;;;;10.18;7.43;;;;;;;3.23;100.00;101466.34;5072181;28;20048;-38
2021/12/06 02:17:21;;;;;;;9.38;6.07;;;;;;;3.17;100.00;101465.38;5071099;28;20460;-37
2021/12/06 02:19:54;;;;;;;9.13;5.90;;;;;;;3.11;100.00;101461.66;5071146;28;20048;-34
2021/12/06 02:22:26;;;;;;;10.55;7.78;;;;;;;3.10;100.00;101459.97;5071869;28;20052;-30
2021/12/06 02:24:55;;;;;;;10.80;7.55;;;;;;;3.08;100.00;101464.88;5071159;28;20079;-34
2021/12/06 02:27:27;;;;;;;13.85;8.85;;;;;;;3.05;100.00;101462.56;5070742;28;20131;-36
2021/12/06 02:29:59;;;;;;;12.45;8.38;;;;;;;3.02;100.00;101468.56;5070896;28;20057;-37
2021/12/06 02:32:27;;;;;;;;;;;;;;;2.94;100.00;101466.16;5071654;28;20485;-38
2021/12/06 02:34:57;;;;;;;10.50;6.60;;;;;;;2.91;100.00;101463.84;5071627;28;19921;-38
2021/12/06 02:37:30;;;;;;;8.98;6.03;;;;;;;2.92;100.00;101461.94;5072211;28;20048;-39
2021/12/06 02:40:06;;;;;;;10.10;6.93;;;;;;;2.86;100.00;101463.69;5070753;28;20079;-42
2021/12/06 02:42:35;;;;;;;9.50;6.55;;;;;;;2.82;100.00;101468.00;5069864;28;20049;-36
2021/12/06 02:45:04;;;;;;;11.27;7.35;;;;;;;2.78;100.00;101460.44;5070681;28;20044;-31
2021/12/06 02:47:36;;;;;;;12.73;8.80;;;;;;;2.74;100.00;101468.34;5070478;28;20052;-32
2021/12/06 02:50:08;;;;;;;13.63;8.85;;;;;;;2.67;100.00;101470.34;5071012;28;20559;-29
2021/12/06 02:52:39;;;;;;;12.85;8.95;;;;;;;2.60;100.00;101467.66;5070588;28;20151;-33
2021/12/06 02:55:24;;;;;;;12.70;8.23;;;;;;;2.56;100.00;101465.63;5071704;28;20056;-30
2021/12/06 02:57:55;;;;;;;12.77;8.60;;;;;;;2.48;100.00;101468.66;5062902;28;20474;-36
2021/12/06 03:00:26;;;;;;;17.88;11.27;;;;;;;2.42;100.00;101468.50;5070314;28;20075;-35
2021/12/06 03:02:55;;;;;;;15.75;10.23;;;;;;;2.38;100.00;101470.06;5070930;28;20044;-31
2021/12/06 03:05:23;;;;;;;14.88;10.25;;;;;;;2.31;100.00;101472.06;5069943;28;20502;-34
2021/12/06 03:07:58;;;;;;;14.18;10.07;;;;;;;2.26;100.00;101466.38;5070232;28;20494;-33
2021/12/06 03:10:28;;;;;;;13.43;8.27;;;;;;;2.19;100.00;101456.53;5069775;28;20071;-31
2021/12/06 03:12:56;;;;;;;11.40;7.63;;;;;;;2.15;100.00;101456.16;5071427;28;20492;-34
2021/12/06 03:15:24;;;;;;;10.63;7.65;;;;;;;2.13;100.00;101454.69;5071420;28;20082;-31
2021/12/06 03:17:52;;;;;;;14.95;9.57;;;;;;;2.08;100.00;101455.38;5068649;28;20095;-35
2021/12/06 03:20:20;;;;;;;10.02;6.97;;;;;;;2.03;100.00;101460.72;5071536;28;20440;-39
2021/12/06 03:22:48;;;;;;;12.02;8.20;;;;;;;1.97;100.00;101465.25;5071247;28;20044;-32
2021/12/06 03:25:18;;;;;;;13.23;9.18;;;;;;;1.94;100.00;101465.69;5069383;28;20045;-32
2021/12/06 03:27:47;;;;;;;11.77;7.88;;;;;;;1.90;100.00;101469.13;5071278;28;20131;-33
2021/12/06 03:30:16;;;;;;;10.95;6.97;;;;;;;1.87;100.00;101461.31;5069810;28;20102;-33
2021/12/06 03:32:45;;;;;;;8.65;5.28;;;;;;;1.85;100.00;101463.44;5069197;28;20110;-34
2021/12/06 03:35:13;;;;;;;9.70;6.38;;;;;;;1.81;100.00;101464.97;5069686;28;20135;-37
2021/12/06 03:37:41;;;;;;;9.15;6.15;;;;;;;1.76;100.00;101456.56;5060456;28;20055;-41
2021/12/06 03:40:10;;;;;;;11.82;7.68;;;;;;;1.73;100.00;101453.19;5069232;28;20051;-40
2021/12/06 03:42:40;;;;;;;12.30;8.43;;;;;;;1.70;100.00;101459.16;5069769;28;20143;-30
2021/12/06 03:45:10;;;;;;;10.02;6.25;;;;;;;1.66;100.00;101449.66;5068708;28;20051;-36
2021/12/06 03:47:39;;;;;;;11.07;6.85;;;;;;;1.64;100.00;101465.53;5069708;28;20094;-33
2021/12/06 03:50:08;;;;;;;9.98;6.13;;;;;;;1.63;100.00;101463.84;5069360;28;20054;-32
2021/12/06 03:52:37;;;;;;;9.02;5.70;;;;;;;1.62;100.00;101464.94;5069849;28;20035;-37
2021/12/06 03:55:06;;;;;;;10.88;7.38;;;;;;;1.64;100.00;101464.69;5069414;28;20040;-39
2021/12/06 03:57:35;;;;;;;13.95;8.43;;;;;;;1.63;100.00;101452.00;5069392;28;20053;-35
2021/12/06 04:00:09;;;;;;;9.82;6.80;;;;;;;1.61;100.00;101454.16;5069258;28;20135;-39
2021/12/06 04:02:42;;;;;;;13.45;8.90;;;;;;;1.62;100.00;101461.31;5071027;28;20063;-39
2021/12/06 04:05:12;;;;;;;12.23;8.18;;;;;;;1.62;100.00;101458.56;5069403;28;20051;-36
2021/12/06 04:07:41;;;;;;;11.25;7.30;;;;;;;1.66;100.00;101468.06;5068804;28;20091;-28
2021/12/06 04:10:10;;;;;;;16.05;11.48;;;;;;;1.69;100.00;101460.22;5069246;28;20114;-34
2021/12/06 04:12:40;;;;;;;12.55;9.30;;;;;;;1.71;100.00;101469.09;5069520;28;20048;-33
2021/12/06 04:15:12;;;;;;;11.43;8.20;;;;;;;1.74;100.00;101473.28;5068923;28;20068;-35
2021/12/06 04:17:41;;;;;;;16.50;11.27;;;;;;;1.80;100.00;101471.56;5069494;28;20057;-34
2021/12/06 04:20:12;;;;;;;14.30;10.45;;;;;;;1.84;100.00;101481.88;5068708;28;20044;-33
2021/12/06 04:22:40;;;;;;;11.68;8.00;;;;;;;1.88;100.00;101483.09;5069755;28;20067;-43
2021/12/06 04:25:12;;;;;;;7.90;5.70;;;;;;;1.94;100.00;101484.09;5069254;28;20513;-36
2021/12/06 04:27:41;;;;;;;8.65;6.38;;;;;;;1.97;100.00;101486.41;5068865;28;20056;-36
2021/12/06 04:30:13;;;;;;;8.23;5.70;;;;;;;2.03;100.00;101491.00;5072914;28;20135;-33
2021/12/06 04:32:40;;;;;;;9.88;7.45;;;;;;;2.07;100.00;101486.72;5063179;28;20090;-37
2021/12/06 04:35:10;;;;;;;8.35;6.00;;;;;;;2.10;100.00;101493.69;5072788;28;20057;-38
2021/12/06 04:37:39;;;;;;;7.75;5.47;;;;;;;2.14;100.00;101492.16;5073072;28;20070;-37
2021/12/06 04:40:10;;;;;;;15.10;11.18;;;;;;;2.18;100.00;101491.50;5072847;28;20063;-36
2021/12/06 04:42:38;;;;;;;11.23;8.13;;;;;;;2.20;100.00;101485.75;5070507;28;20040;-35
2021/12/06 04:45:10;;;;;;;10.52;7.85;;;;;;;2.23;100.00;101482.50;5073165;28;20056;-30
2021/12/06 04:47:40;;;;;;;8.70;6.60;;;;;;;2.23;100.00;101474.25;5071917;28;20531;-36
2021/12/06 04:50:10;;;;;;;9.07;6.22;;;;;;;2.25;100.00;101461.94;5072261;28;20094;-36
2021/12/06 04:52:40;;;;;;;12.38;9.13;;;;;;;2.25;100.00;101467.44;5072756;28;20048;-35
2021/12/06 04:55:16;;;;;;;13.35;9.75;;;;;;;2.25;100.00;101452.84;5072441;28;20076;-32
2021/12/06 04:57:47;;;;;;;13.65;9.50;;;;;;;2.24;100.00;101442.91;5072526;28;20060;-37
2021/12/06 05:00:18;;;;;;;14.02;10.52;;;;;;;2.23;100.00;101447.56;5072646;28;20458;-36
2021/12/06 05:02:48;;;;;;;10.90;7.90;;;;;;;2.22;100.00;101442.28;5071854;28;20052;-31
2021/12/06 05:05:19;;;;;;;10.18;7.60;;;;;;;2.19;100.00;101445.53;5072719;28;20494;-35
2021/12/06 05:07:50;;;;;;;;;;;;;;;2.14;100.00;101451.72;5072760;28;20055;-32
2021/12/06 05:10:19;;;;;;;11.10;8.05;;;;;;;2.10;100.00;101455.16;5069667;28;20389;-35
2021/12/06 05:12:48;;;;;;;13.25;9.90;;;;;;;2.08;100.00;101449.88;5072377;28;20048;-36
2021/12/06 05:15:19;;;;;;;15.85;11.27;;;;;;;2.04;100.00;101452.22;5073815;28;20113;-36
2021/12/06 05:17:48;;;;;;;13.75;9.73;;;;;;;2.04;100.00;101465.16;5073238;28;20044;-30
2021/12/06 05:20:18;;;;;;;10.98;7.75;;;;;;;2.01;100.00;101460.09;5072111;28;20052;-37
2021/12/06 05:22:48;;;;;;;13.10;9.38;;;;;;;1.98;100.00;101471.59;5072245;28;20493;-31
2021/12/06 05:25:17;;;;;;;13.25;9.55;;;;;;;1.94;100.00;101460.19;5072609;28;20052;-35
2021/12/06 05:27:47;;;;;;;10.52;7.78;;;;;;;1.92;100.00;101462.31;5072287;28;20123;-35
2021/12/06 05:30:16;;;;;;;10.05;7.10;;;;;;;1.90;100.00;101466.38;5071997;28;20527;-37
2021/12/06 05:32:44;;;;;;;9.70;6.50;;;;;;;1.86;100.00;101460.47;5071996;28;20122;-33
2021/12/06 05:35:15;;;;;;;10.98;8.00;;;;;;;1.82;100.00;101464.72;5073134;28;20074;-32
2021/12/06 05:37:46;;;;;;;14.27;10.75;;;;;;;1.77;100.00;101455.50;5072974;28;20068;-31
2021/12/06 05:40:18;;;;;;;13.25;9.27;;;;;;;1.72;100.00;101450.66;5072627;28;20056;-37
2021/12/06 05:42:46;;;;;;;10.30;7.30;;;;;;;1.68;100.00;101452.19;5073223;28;20051;-32
2021/12/06 05:45:18;;;;;;;13.20;9.05;;;;;;;1.65;100.00;101452.63;5072485;28;20048;-40
2021/12/06 05:47:46;;;;;;;12.60;8.80;;;;;;;1.60;100.00;101441.50;5073060;28;20036;-36
2021/12/06 05:50:17;;;;;;;12.23;8.95;;;;;;;1.58;100.00;101438.97;5072675;28;20455;-41
2021/12/06 05:52:45;;;;;;;14.40;9.82;;;;;;;1.55;100.00;101444.91;5072566;28;20057;-35
2021/12/06 05:55:14;;;;;;;13.90;10.15;;;;;;;1.53;100.00;101444.28;5072442;28;20049;-35
2021/12/06 05:57:43;;;;;;;14.25;10.10;;;;;;;1.51;100.00;101440.06;5071450;28;20161;-31
2021/12/06 06:00:14;;;;;;;15.88;11.07;;;;;;;1.47;100.00;101433.34;5067348;28;20139;-39
2021/12/06 06:02:42;;;;;;;15.02;10.77;;;;;;;1.45;100.00;101440.97;5071592;28;20085;-37
2021/12/06 06:05:11;;;;;;;13.15;9.05;;;;;;;1.43;100.00;101449.44;5069808;28;20446;-32
2021/12/06 06:07:40;;;;;;;15.60;10.25;;;;;;;1.43;100.00;101449.44;5059950;28;20052;-34
2021/12/06 06:10:09;;;;;;;11.48;7.05;;;;;;;1.42;100.00;101452.41;5071216;28;20428;-36
2021/12/06 06:12:36;;;;;;;10.65;7.00;;;;;;;1.42;100.00;101455.16;5071248;28;20056;-38
2021/12/06 06:15:05;;;;;;;14.40;9.38;;;;;;;1.41;100.00;101468.06;5071280;28;20054;-36
2021/12/06 06:17:39;;;;;;;17.83;12.27;;;;;;;1.39;100.00;101459.22;5066135;28;20048;-33
2021/12/06 06:20:11;;;;;;;17.90;13.32;;;;;;;1.36;100.00;101465.16;5071004;28;20462;-38
2021/12/06 06:22:41;;;;;;;17.20;11.35;;;;;;;1.36;100.00;101467.91;5071028;28;20036;-33
2021/12/06 06:25:10;;;;;;;20.48;13.13;;;;;;;1.37;100.00;101470.44;5071327;28;20072;-35
2021/12/06 06:27:38;;;;;;;20.67;12.85;;;;;;;1.37;100.00;101472.34;5070518;28;20040;-35
2021/12/06 06:30:06;;;;;;;19.75;13.48;;;;;;;1.35;100.00;101478.06;5071500;28;20055;-36
2021/12/06 06:32:34;;;;;;;21.35;14.23;;;;;;;1.35;100.00;101488.22;5070700;28;20040;-35
2021/12/06 06:35:04;;;;;;;25.13;15.93;;;;;;;1.41;100.00;101479.06;5070619;28;20428;-37
2021/12/06 06:37:32;;;;;;;25.90;15.48;;;;;;;1.47;100.00;101480.09;5070836;28;20048;-29
2021/12/06 06:40:01;;;;;;;22.85;14.73;;;;;;;1.53;100.00;101474.53;5070798;28;20057;-32
2021/12/06 06:42:29;;;;;;;22.98;15.05;;;;;;;1.59;100.00;101479.16;5070717;28;20151;-33
2021/12/06 06:44:57;;;;;;;22.95;14.38;;;;;;;1.66;100.00;101476.31;5069371;28;20476;-40
2021/12/06 06:47:25;;;;;;;22.25;13.98;;;;;;;1.70;100.00;101472.06;5070759;28;20041;-34
2021/12/06 06:49:53;;;;;;;22.02;13.85;;;;;;;1.73;100.00;101466.94;5070258;28;20779;-39
2021/12/06 06:52:21;;;;;;;21.02;13.65;;;;;;;1.79;100.00;101473.47;5060489;28;20163;-38
2021/12/06 06:54:49;;;;;;;24.30;15.20;;;;;;;1.82;100.00;101470.25;5070094;28;20052;-36
2021/12/06 06:57:18;;;;;;;21.83;14.15;;;;;;;1.85;100.00;101468.94;5070336;28;20054;-36
2021/12/06 06:59:47;;;;;;;21.58;14.05;;;;;;;1.86;100.00;101465.97;5070645;28;20409;-34
2021/12/06 07:02:15;;;;;;;21.73;13.55;;;;;;;1.89;100.00;101456.44;5064936;28;20044;-42
2021/12/06 07:04:44;;;;;;;23.02;14.68;;;;;;;1.92;100.00;101461.47;5070726;28;20060;-33
2021/12/06 07:07:12;;;;;;;24.80;14.85;;;;;;;1.99;100.00;101462.25;5069804;28;20135;-33
2021/12/06 07:09:42;;;;;;;26.20;14.57;;;;;;;2.04;100.00;101454.13;5070186;28;20058;-38
2021/12/06 07:12:15;;;;;;;22.10;13.02;;;;;;;2.08;100.00;101453.47;5070407;28;20747;-33
2021/12/06 07:14:46;;;;;;;25.13;14.82;;;;;;;2.14;100.00;101443.44;5070777;28;20078;-36
2021/12/06 07:17:16;;;;;;;25.73;14.23;;;;;;;2.16;100.00;101446.81;5067618;28;20414;-32
2021/12/06 07:19:44;;;;;;;25.60;14.38;;;;;;;2.21;100.00;101446.09;5070116;28;20044;-42
2021/12/06 07:22:13;;;;;;;29.25;16.25;;;;;;;2.24;100.00;101440.16;5069837;28;20055;-37
2021/12/06 07:24:41;;;;;;;31.40;16.33;;;;;;;2.27;100.00;101453.47;5067643;28;20079;-33
2021/12/06 07:27:08;;;;;;;33.03;16.98;;;;;;;2.28;100.00;101450.47;5069312;28;20599;-36
2021/12/06 07:29:37;;;;;;;42.72;19.67;;;;;;;2.31;100.00;101447.28;5068321;28;20056;-29
2021/12/06 07:32:07;;;;;;;41.70;18.80;;;;;;;2.33;100.00;101442.38;5068190;28;20041;-37
2021/12/06 07:34:36;;;;;;;47.33;21.30;;;;;;;2.35;100.00;101443.00;5068889;28;20524;-34
2021/12/06 07:37:05;;;;;;;49.55;22.92;;;;;;;2.37;100.00;101440.00;5068749;28;20106;-36
2021/12/06 07:39:33;;;;;;;51.83;23.73;;;;;;;2.39;100.00;101444.22;5068984;28;20127;-33
2021/12/06 07:42:01;;;;;;;53.20;23.45;;;;;;;2.41;100.00;101443.94;5068870;28;20044;-34
2021/12/06 07:44:28;;;;;;;53.28;24.17;;;;;;;2.42;100.00;101435.47;5065951;28;20049;-33
2021/12/06 07:46:56;;;;;;;46.95;21.67;;;;;;;2.43;100.00;101437.16;5061357;28;20043;-37
2021/12/06 07:49:25;;;;;;;48.72;22.65;;;;;;;2.46;100.00;101440.50;5069982;28;20055;-38
2021/12/06 07:51:54;;;;;;;46.17;21.77;;;;;;;2.47;100.00;101437.53;5069124;28;20051;-35
2021/12/06 07:54:22;;;;;;;47.92;22.92;;;;;;;2.49;100.00;101431.78;5070045;28;20054;-34
2021/12/06 07:56:50;;;;;;;52.50;23.25;;;;;;;2.51;100.00;101432.41;5069246;28;20067;-36
2021/12/06 07:59:19;;;;;;;46.63;21.98;;;;;;;2.51;100.00;101430.50;5069442;28;20051;-37
2021/12/06 08:01:47;;;;;;;47.67;22.67;;;;;;;2.52;100.00;101423.91;5069500;28;20051;-36
2021/12/06 08:04:16;;;;;;;48.30;23.08;;;;;;;2.51;100.00;101435.16;5069419;28;20048;-32
2021/12/06 08:06:45;;;;;;;52.85;23.25;;;;;;;2.52;100.00;101434.09;5069071;28;20538;-34
2021/12/06 08:09:14;;;;;;;48.58;24.05;;;;;;;2.55;100.00;101433.63;5069895;28;20047;-34
2021/12/06 08:11:48;;;;;;;44.97;21.00;;;;;;;2.54;100.00;101438.28;5069459;28;20045;-38
2021/12/06 08:14:15;;;;;;;46.65;22.58;;;;;;;2.55;100.00;101436.38;5069418;28;20055;-31
2021/12/06 08:16:43;;;;;;;47.35;23.85;;;;;;;2.58;100.00;101439.53;5067333;28;20063;-35
2021/12/06 08:19:12;;;;;;;46.20;22.75;;;;;;;2.59;100.00;101434.84;5068988;28;20048;-38
2021/12/06 08:21:40;;;;;;;47.42;22.67;;;;;;;2.62;100.00;101435.19;5053337;28;20049;-37
2021/12/06 08:24:10;;;;;;;48.28;23.17;;;;;;;2.63;100.00;101447.06;5069348;28;20052;-31
2021/12/06 08:26:41;;;;;;;45.90;22.33;;;;;;;2.66;100.00;101443.84;5067640;28;20409;-34
2021/12/06 08:29:13;;;;;;;50.67;24.23;;;;;;;2.67;100.00;101442.78;5069606;28;20051;-35
2021/12/06 08:31:44;;;;;;;48.40;23.02;;;;;;;2.68;100.00;101441.69;5069747;28;20044;-35
2021/12/06 08:34:12;;;;;;;50.95;23.75;;;;;;;2.68;100.00;101442.53;5065275;28;20498;-29
2021/12/06 08:36:40;;;;;;;51.95;24.30;;;;;;;2.65;100.00;101445.75;5069418;28;20045;-36
2021/12/06 08:39:09;;;;;;;57.25;25.50;;;;;;;2.63;100.00;101436.03;5069435;28;20074;-33
2021/12/06 08:41:37;;;;;;;50.65;23.90;;;;;;;2.65;100.00;101440.25;5068774;28;20076;-31
2021/12/06 08:44:06;;;;;;;54.08;25.20;;;;;;;2.67;100.00;101440.88;5069179;28;20049;-39
2021/12/06 08:46:38;;;;;;;47.42;23.73;;;;;;;2.68;100.00;101444.47;5069206;28;20052;-36
2021/12/06 08:49:09;;;;;;;47.47;23.13;;;;;;;2.69;100.00;101440.63;5068489;28;20048;-33
2021/12/06 08:51:41;;;;;;;50.75;22.67;;;;;;;2.73;100.00;101441.84;5069706;28;20076;-39
2021/12/06 08:54:14;;;;;;;47.03;23.25;;;;;;;2.78;100.00;101443.91;5069429;28;20044;-35
2021/12/06 08:56:42;;;;;;;48.42;23.45;;;;;;;2.80;100.00;101447.28;5069748;28;20059;-31
2021/12/06 08:59:11;;;;;;;52.60;24.88;;;;;;;2.87;100.00;101443.34;5068532;28;20818;-33
2021/12/06 09:01:40;;;;;;;51.35;24.10;;;;;;;2.85;100.00;101437.22;5058496;28;20053;-32
2021/12/06 09:04:34;;;;;;;51.05;22.98;;;;;;;2.91;100.00;101429.94;5070073;28;20415;-35
2021/12/06 09:07:09;;;;;;;49.63;24.85;;;;;;;2.92;100.00;101435.22;5070322;28;20048;-33
2021/12/06 09:09:45;;;;;;;49.47;23.50;;;;;;;3.03;100.00;101430.78;5069276;28;20118;-38
2021/12/06 09:12:18;;;;;;;45.40;22.67;;;;;;;3.13;100.00;101436.59;5069310;28;20115;-30
2021/12/06 09:14:46;;;;;;;50.05;23.95;;;;;;;3.21;100.00;101430.72;5068343;28;20036;-34
2021/12/06 09:17:18;;;;;;;48.42;23.10;;;;;;;3.25;100.00;101440.22;5072323;28;20047;-34
2021/12/06 09:19:47;;;;;;;48.97;22.35;;;;;;;3.34;100.00;101438.81;5073373;28;20401;-36
2021/12/06 09:22:14;;;;;;;50.72;24.63;;;;;;;3.42;100.00;101437.59;5073525;28;20074;-38
2021/12/06 09:24:44;;;;;;;49.53;24.35;;;;;;;3.47;100.00;101435.81;5072557;28;20056;-34
2021/12/06 09:27:13;;;;;;;48.08;23.35;;;;;;;3.52;100.00;101443.38;5073676;28;20074;-36
2021/12/06 09:29:41;;;;;;;48.78;24.42;;;;;;;3.54;100.00;101434.88;5072798;28;20405;-33
2021/12/06 09:32:11;;;;;;;46.20;23.17;;;;;;;3.55;100.00;101444.81;5073863;28;20050;-33
2021/12/06 09:34:44;;;;;;;44.08;23.08;;;;;;;3.43;100.00;101442.03;5073381;28;20052;-31
2021/12/06 09:37:13;;;;;;;37.30;20.33;;;;;;;3.39;100.00;101438.09;5072220;28;20045;-35
2021/12/06 09:39:41;;;;;;;40.80;21.88;;;;;;;3.42;100.00;101437.59;5073459;28;20071;-39
2021/12/06 09:42:10;;;;;;;37.90;21.38;;;;;;;3.43;100.00;101434.59;5073161;28;20067;-31
2021/12/06 09:44:38;;;;;;;40.13;21.20;;;;;;;3.42;100.00;101434.84;5070804;28;20062;-32
2021/12/06 09:47:06;;;;;;;42.03;21.73;;;;;;;3.39;100.00;101444.47;5072662;28;20116;-35
2021/12/06 09:49:34;;;;;;;38.78;19.83;;;;;;;3.38;100.00;101436.41;5056926;28;20053;-33
2021/12/06 09:52:06;;;;;;;36.65;18.65;;;;;;;3.35;100.00;101440.47;5072668;28;20048;-31
2021/12/06 09:54:37;;;;;;;36.63;18.87;;;;;;;3.38;100.00;101431.75;5072980;28;20105;-37
2021/12/06 09:57:07;;;;;;;33.50;17.93;;;;;;;3.44;100.00;101439.03;5073020;28;20051;-38
2021/12/06 09:59:39;;;;;;;32.22;16.88;;;;;;;3.50;100.00;101428.97;5072400;28;20310;-38
2021/12/06 10:02:09;;;;;;;32.65;17.67;;;;;;;3.59;100.00;101435.84;5069283;28;20135;-35
2021/12/06 10:04:41;;;;;;;39.50;19.73;;;;;;;3.60;100.00;101437.50;5072754;28;20087;-31
2021/12/06 10:07:09;;;;;;;40.33;20.17;;;;;;;3.61;100.00;101436.41;5071983;28;20417;-32
2021/12/06 10:09:39;;;;;;;34.63;19.50;;;;;;;3.63;100.00;101427.91;5072829;28;20063;-34
2021/12/06 10:12:09;;;;;;;36.67;18.73;;;;;;;3.67;100.00;101418.06;5071871;28;20071;-36
2021/12/06 10:14:38;;;;;;;36.83;18.40;;;;;;;3.68;100.00;101423.34;5072648;28;20052;-33
2021/12/06 10:17:11;;;;;;;36.45;19.25;;;;;;;3.64;100.00;101422.13;5072522;28;20585;-34
2021/12/06 10:19:39;;;;;;;40.78;20.75;;;;;;;3.57;100.00;101421.44;5072162;28;20054;-35
2021/12/06 10:22:07;;;;;;;39.65;20.48;;;;;;;3.58;100.00;101402.97;5072401;28;20051;-31
2021/12/06 10:24:35;;;;;;;47.53;23.45;;;;;;;3.52;100.00;101396.47;5072353;28;20421;-32
2021/12/06 10:27:06;;;;;;;43.95;21.70;;;;;;;3.43;100.00;101382.19;5070215;28;20040;-34
2021/12/06 10:29:44;;;;;;;45.70;21.98;;;;;;;3.47;100.00;101368.75;5060372;28;20446;-37
2021/12/06 10:32:15;;;;;;;54.45;25.08;;;;;;;3.45;100.00;101362.63;5070884;28;21040;-32
2021/12/06 10:34:46;;;;;;;44.83;23.35;;;;;;;3.43;100.00;101351.00;5070763;28;20075;-34
2021/12/06 10:37:29;;;;;;;43.28;23.08;;;;;;;3.44;100.00;101359.03;5070578;28;20628;-32
2021/12/06 10:39:57;;;;;;;49.05;23.75;;;;;;;3.48;100.00;101340.09;5059850;28;20520;-38
2021/12/06 10:42:28;;;;;;;46.90;22.77;;;;;;;3.54;100.00;101341.06;5070783;28;20045;-38
2021/12/06 10:45:01;;;;;;;46.55;23.65;;;;;;;3.49;100.00;101330.72;5070610;28;20668;-35
2021/12/06 10:47:29;;;;;;;46.63;24.17;;;;;;;3.46;100.00;101323.78;5068072;28;20059;-35
2021/12/06 10:50:08;;;;;;;46.63;24.30;;;;;;;3.46;100.00;101322.94;5070198;28;20051;-38
2021/12/06 10:52:36;;;;;;;40.20;21.92;;;;;;;3.48;100.00;101318.03;5070454;28;20515;-38
2021/12/06 10:55:05;;;;;;;44.58;22.90;;;;;;;3.46;100.00;101336.72;5070088;28;20056;-32
2021/12/06 10:57:52;;;;;;;42.75;23.48;;;;;;;3.43;100.00;101309.63;5070619;28;20049;-31
2021/12/06 11:00:34;;;;;;;43.10;22.13;;;;;;;3.34;100.00;101306.41;5070810;28;20052;-33
2021/12/06 11:03:03;;;;;;;42.70;21.90;;;;;;;3.34;100.00;101305.56;5069657;28;20110;-40
2021/12/06 11:05:34;;;;;;;45.65;22.63;;;;;;;3.38;100.00;101309.53;5070800;28;20067;-34
2021/12/06 11:08:10;;;;;;;41.00;21.92;;;;;;;3.44;100.00;101303.03;5069506;28;20044;-36
2021/12/06 11:10:40;;;;;;;44.10;23.10;;;;;;;3.45;100.00;101290.91;5067898;28;20055;-36
2021/12/06 11:13:17;;;;;;;46.90;23.95;;;;;;;3.44;100.00;101300.25;5070135;28;20048;-40
2021/12/06 11:16:08;;;;;;;45.50;23.70;;;;;;;3.51;100.00;101281.69;5066565;28;20059;-37
2021/12/06 11:18:40;;;;;;;47.22;23.52;;;;;;;3.54;100.00;101280.34;5069885;28;20505;-41
2021/12/06 11:21:16;;;;;;;47.72;24.02;;;;;;;3.55;100.00;101279.28;5069008;28;20056;-33
2021/12/06 11:24:14;;;;;;;49.60;25.38;;;;;;;3.54;100.00;101280.34;5069342;28;20067;-34
2021/12/06 11:26:46;;;;;;;52.45;25.92;;;;;;;3.49;100.00;101255.41;5060195;28;20045;-33
2021/12/06 11:29:18;;;;;;;50.90;25.13;;;;;;;3.50;100.00;101249.66;5070342;28;20040;-33
2021/12/06 11:31:56;;;;;;;48.55;23.95;;;;;;;3.55;100.00;101247.00;5070672;28;20075;-30
2021/12/06 11:34:32;;;;;;;51.97;26.60;;;;;;;3.55;100.00;101247.00;5070846;28;20048;-27